METAR Data
IDs: Format: Raw Decoded Include TAF

Data at: 2058 UTC 26 May 2019

KIKV 262055Z AUTO 16006KT 9SM FEW035 FEW041 24/16 A3006 RMK AO2
KIKV 262035Z AUTO 20006KT 9SM CLR 24/16 A3007 RMK AO2
KIKV 262015Z AUTO VRB04KT 7SM CLR 24/17 A3007 RMK AO2
KIKV 261955Z AUTO 16006KT 9SM FEW036 24/16 A3007 RMK AO2
KIKV 261935Z AUTO 16006KT 8SM FEW036 23/17 A3008 RMK AO2
KIKV 261915Z AUTO VRB06KT 9SM SCT035 23/16 A3009 RMK AO2
KIKV 261855Z AUTO 16005KT 9SM BKN034 23/16 A3009 RMK AO2
KIKV 261835Z AUTO 15004KT 9SM SCT034 23/15 A3010 RMK AO2
KIKV 261815Z AUTO VRB03KT 10SM FEW032 22/15 A3010 RMK AO2
KIKV 261755Z AUTO 00000KT 10SM FEW031 22/15 A3010 RMK AO2
KIKV 261735Z AUTO 00000KT 9SM CLR 22/14 A3010 RMK AO2
KIKV 261715Z AUTO VRB03KT 9SM CLR 22/15 A3010 RMK AO2
KIKV 261655Z AUTO 36003KT 10SM CLR 21/14 A3011 RMK AO2
KIKV 261635Z AUTO 06004KT 10SM CLR 20/13 A3011 RMK AO2
KIKV 261615Z AUTO VRB04KT 10SM CLR 20/14 A3011 RMK AO2
KIKV 261555Z AUTO VRB03KT 10SM CLR 20/13 A3010 RMK AO2
KIKV 261535Z AUTO VRB05KT 8SM FEW034 20/13 A3011 RMK AO2
KIKV 261515Z AUTO 05005KT 10SM BKN034 BKN043 19/13 A3010 RMK AO2
KIKV 261455Z AUTO 09005KT 10SM OVC036 18/12 A3010 RMK AO2
KIKV 261435Z AUTO 00000KT 10SM SCT039 BKN048 18/12 A3011 RMK AO2
KIKV 261415Z AUTO 00000KT 10SM FEW048 18/13 A3011 RMK AO2
KIKV 261355Z AUTO VRB04KT 10SM CLR 18/13 A3011 RMK AO2
KIKV 261335Z AUTO 00000KT 10SM CLR 17/12 A3010 RMK AO2
KIKV 261315Z AUTO 00000KT 10SM CLR 17/13 A3010 RMK AO2
KIKV 261255Z AUTO 00000KT 10SM CLR 16/13 A3008 RMK AO2
KIKV 261235Z AUTO 00000KT 10SM CLR 15/14 A3007 RMK AO2
KIKV 261215Z AUTO 00000KT 10SM CLR 15/14 A3007 RMK AO2
KIKV 261155Z AUTO 00000KT 10SM CLR 15/13 A3006 RMK AO2
KIKV 261135Z AUTO 00000KT 10SM FEW075 15/13 A3005 RMK AO2
KIKV 261115Z AUTO 18004KT 10SM BKN075 BKN085 15/13 A3004 RMK AO2
KIKV 261055Z AUTO 04006KT 10SM FEW075 FEW085 SCT110 15/13 A3002 RMK AO2 P0008
KIKV 261035Z AUTO 02008KT 9SM -RA SCT034 BKN065 OVC110 15/14 A3000 RMK AO2
KIKV 261015Z AUTO 01009G15KT 6SM RA SCT028 BKN037 OVC100 15/14 A3000 RMK AO2
KIKV 260955Z AUTO 02010KT 5SM RA FEW025 BKN031 OVC095 15/14 A3001 RMK AO2 P0021
KIKV 260935Z AUTO 04010KT 6SM -RA FEW003 BKN029 OVC038 15/14 A3003 RMK AO2
KIKV 260915Z AUTO 06004G10KT 2SM RA SCT003 BKN030 OVC065 15/14 A3005 RMK AO2
KIKV 260855Z AUTO 00000KT 5SM -RA FEW003 SCT055 OVC065 15/14 A3009 RMK AO2 P0025
KIKV 260835Z AUTO 18006KT 2 1/2SM RA FEW004 SCT032 BKN050 16/13 A3009 RMK AO2
KIKV 260815Z AUTO 12004KT 8SM -RA FEW032 SCT055 OVC090 16/13 A3005 RMK AO2
KIKV 260755Z AUTO 05005KT 10SM FEW025 FEW075 BKN110 17/12 A3003 RMK AO2
KIKV 260735Z AUTO 01007KT 10SM FEW085 SCT120 17/13 A3001 RMK AO2
KIKV 260715Z AUTO 01006KT 10SM SCT085 18/13 A3001 RMK AO2
KIKV 260655Z AUTO 02006KT 10SM CLR 18/12 A3000 RMK AO2
KIKV 260635Z AUTO 01008KT 10SM CLR 19/12 A2998 RMK AO2
KIKV 260615Z AUTO 01008KT 10SM CLR 19/12 A2996 RMK AO2
KIKV 260555Z AUTO 01007G13KT 10SM CLR 19/12 A2999 RMK AO2
KIKV 260535Z AUTO 35008KT 10SM CLR 20/12 A2996 RMK AO2
KIKV 260515Z AUTO 35008KT 10SM FEW047 SCT055 SCT070 20/13 A2997 RMK AO2
KIKV 260455Z AUTO 35005KT 9SM OVC050 19/14 A2999 RMK AO2
KIKV 260435Z AUTO 00000KT 10SM BKN055 19/14 A2999 RMK AO2
KIKV 260415Z AUTO 02004KT 10SM CLR 19/14 A2998 RMK AO2
KIKV 260355Z AUTO 01006KT CLR 19/14 A2997 RMK AO2
KIKV 260335Z AUTO 02005KT 10SM CLR 19/15 A2997 RMK AO2
KIKV 260315Z AUTO 01005KT 10SM FEW047 20/14 A2997 RMK AO2
KIKV 260255Z AUTO 36006KT 10SM BKN047 21/14 A2997 RMK AO2
KIKV 260235Z AUTO 35005KT 10SM OVC046 22/14 A2996 RMK AO2
KIKV 260215Z AUTO 36004KT 10SM OVC045 22/14 A2995 RMK AO2
KIKV 260155Z AUTO 36006KT 10SM BKN045 22/14 A2995 RMK AO2
KIKV 260135Z AUTO 35006KT 10SM BKN045 23/15 A2994 RMK AO2
KIKV 260115Z AUTO 36004KT 10SM SCT045 23/16 A2993 RMK AO2
KIKV 260055Z AUTO 36005KT 10SM CLR 23/16 A2992 RMK AO2
KIKV 260035Z AUTO 36005KT 10SM CLR 24/16 A2992 RMK AO2
KIKV 260015Z AUTO 35006KT 10SM CLR 25/16 A2992 RMK AO2
KIKV 252355Z AUTO 34009KT 9SM FEW045 25/17 A2991 RMK AO2
KIKV 252335Z AUTO 01005KT 10SM FEW050 SCT055 SCT075 26/17 A2992 RMK AO2
KIKV 252315Z AUTO VRB06KT 9SM FEW043 SCT050 BKN075 25/19 A2994 RMK AO2
KIKV 252255Z AUTO 03004KT 7SM -RA BKN037 BKN047 BKN060 25/18 A2994 RMK AO2
KIKV 252235Z AUTO 33009G15KT 10SM BKN035 BKN046 OVC055 25/17 A2995 RMK AO2
KIKV 252215Z AUTO 22006KT 10SM FEW039 FEW046 SCT055 25/19 A2994 RMK AO2
KIKV 252155Z AUTO 23007G12KT 10SM SCT045 SCT050 SCT080 26/19 A2995 RMK AO2
KIKV 252135Z AUTO 23007KT 10SM FEW036 BKN045 OVC050 26/19 A2994 RMK AO2
KIKV 252115Z AUTO 25008G14KT 10SM BKN050 26/17 A2994 RMK AO2
KIKV 252055Z AUTO 25009G15KT 9SM BKN055 BKN070 27/17 A2994 RMK AO2
KIKV 252035Z AUTO 24010KT 200V270 10SM FEW050 FEW055 27/17 A2993 RMK AO2
KIKV 252015Z AUTO 21006G12KT 10SM SCT050 SCT060 27/18 A2993 RMK AO2
KIKV 251955Z AUTO 26010KT 10SM SCT047 SCT055 26/17 A2994 RMK AO2
KIKV 251935Z AUTO 25009G14KT 10SM FEW046 27/17 A2994 RMK AO2
KIKV 251915Z AUTO 25010KT 10SM FEW043 26/17 A2994 RMK AO2
KIKV 251855Z AUTO 22009G14KT 10SM SCT040 SCT046 26/18 A2994 RMK AO2
KIKV 251835Z AUTO VRB05G11KT 10SM CLR 26/18 A2993 RMK AO2
KIKV 251815Z AUTO 26005G10KT 10SM FEW036 26/18 A2994 RMK AO2
KIKV 251755Z AUTO 27009KT 10SM FEW035 25/18 A2994 RMK AO2
KIKV 251735Z AUTO 24010KT 10SM FEW032 FEW038 25/18 A2995 RMK AO2
KIKV 251715Z AUTO 24007G16KT 10SM CLR 25/18 A2995 RMK AO2
KIKV 251655Z AUTO 25008G14KT 10SM FEW030 25/18 A2995 RMK AO2
KIKV 251635Z AUTO 24009G14KT 10SM SCT029 SCT034 24/18 A2995 RMK AO2
KIKV 251615Z AUTO 25011G16KT 10SM FEW022 FEW029 SCT038 24/18 A2995 RMK AO2
KIKV 251555Z AUTO 24010KT 10SM SCT021 BKN030 BKN038 24/19 A2994 RMK AO2
KIKV 251535Z AUTO 23013KT 10SM BKN018 BKN024 BKN035 23/18 A2994 RMK AO2
KIKV 251515Z AUTO 23008KT 10SM BKN017 BKN023 OVC033 22/19 A2994 RMK AO2
KIKV 251455Z AUTO 22008KT 10SM FEW016 SCT023 OVC029 21/18 A2994 RMK AO2
KIKV 251435Z AUTO 22008KT 10SM BKN023 OVC028 21/18 A2993 RMK AO2
KIKV 251415Z AUTO 24005KT 10SM OVC020 21/18 A2992 RMK AO2
KIKV 251355Z AUTO 26007G13KT 10SM OVC017 20/18 A2992 RMK AO2
KIKV 251335Z AUTO 26009KT 10SM OVC013 20/18 A2992 RMK AO2
KIKV 251315Z AUTO 26006G12KT 10SM OVC013 20/18 A2992 RMK AO2
KIKV 251255Z AUTO 24009G14KT 10SM OVC013 20/18 A2991 RMK AO2
KIKV 251235Z AUTO 23009G14KT 10SM OVC013 20/18 A2990 RMK AO2
KIKV 251215Z AUTO 23009G15KT 10SM OVC013 20/18 A2990 RMK AO2
KIKV 251155Z AUTO 22011G19KT 10SM OVC013 20/18 A2989 RMK AO2
KIKV 251135Z AUTO 22014KT 10SM OVC012 20/18 A2988 RMK AO2
KIKV 251115Z AUTO 23011G20KT 10SM OVC011 20/18 A2989 RMK AO2
KIKV 251055Z AUTO 23013G20KT 10SM OVC011 20/18 A2988 RMK AO2
KIKV 251035Z AUTO 23012G18KT 10SM OVC013 20/18 A2987 RMK AO2
KIKV 251015Z AUTO 23010KT 10SM OVC013 20/17 A2986 RMK AO2
KIKV 250955Z AUTO 22009G15KT 190V250 10SM OVC014 20/17 A2986 RMK AO2
KIKV 250935Z AUTO 23011KT 10SM OVC015 20/17 A2986 RMK AO2
KIKV 250915Z AUTO 23008KT 10SM BKN016 19/17 A2985 RMK AO2